Time;durP1;ratioP1;P1;durP2;ratioP2;P2;SDS_P1;SDS_P2;PMS_P1;PMS_P2;Temp;Humidity;BMP_temperature;BMP_pressure;BME280_temperature;BME280_humidity;BME280_pressure;Samples;Min_cycle;Max_cycle;Signal;HPM_P1;HPM_P2
2022/12/29 00:00:05;;;;;;;4.65;3.55;;;11.70;95.60;;;;;;5018727;28;20021;-68
2022/12/29 00:02:30;;;;;;;4.47;3.50;;;11.80;95.60;;;;;;5024260;28;20033;-67
2022/12/29 00:04:56;;;;;;;4.03;3.30;;;11.70;95.50;;;;;;5026894;28;20026;-67
2022/12/29 00:07:21;;;;;;;3.55;3.22;;;11.80;95.50;;;;;;5026967;28;20685;-67
2022/12/29 00:09:47;;;;;;;3.70;2.95;;;11.70;95.50;;;;;;5028306;28;20129;-67
2022/12/29 00:12:12;;;;;;;3.60;3.30;;;11.70;95.50;;;;;;5026549;28;20030;-68
2022/12/29 00:17:23;;;;;;;4.78;3.75;;;11.70;95.30;;;;;;5021661;28;20044;-68
2022/12/29 00:36:37;;;;;;;4.80;3.63;;;11.80;95.30;;;;;;5023468;28;20514;-68
2022/12/29 00:44:44;;;;;;;4.23;3.30;;;11.70;95.20;;;;;;5022644;28;20122;-68
2022/12/29 00:47:09;;;;;;;3.55;3.10;;;11.80;95.20;;;;;;5025477;28;20112;-68
2022/12/29 00:49:35;;;;;;;3.17;2.80;;;11.80;95.20;;;;;;5025507;28;20109;-68
2022/12/29 00:52:06;;;;;;;3.47;2.90;;;11.80;95.20;;;;;;5026631;28;21037;-68
2022/12/29 00:54:37;;;;;;;3.50;3.13;;;11.80;95.20;;;;;;5028129;28;20120;-68
2022/12/29 00:57:04;;;;;;;3.25;2.95;;;11.80;95.20;;;;;;5025203;28;20045;-68
2022/12/29 00:59:30;;;;;;;3.58;2.70;;;11.80;95.00;;;;;;5024371;28;20028;-68
2022/12/29 01:01:56;;;;;;;3.47;3.10;;;11.80;95.10;;;;;;5028582;28;20025;-68
2022/12/29 01:04:23;;;;;;;3.53;2.80;;;11.80;95.00;;;;;;5027015;28;20583;-68
2022/12/29 01:06:49;;;;;;;3.78;2.85;;;11.80;95.00;;;;;;5027836;28;20439;-68
2022/12/29 01:12:00;;;;;;;3.45;2.40;;;11.80;95.10;;;;;;5025113;28;20069;-69
2022/12/29 01:14:26;;;;;;;3.10;2.33;;;11.80;95.10;;;;;;5024454;28;20056;-68
2022/12/29 01:16:52;;;;;;;3.70;2.15;;;11.80;95.10;;;;;;5028358;28;20677;-69
2022/12/29 01:19:19;;;;;;;4.13;2.10;;;11.80;95.00;;;;;;5024882;28;20034;-68
2022/12/29 01:21:45;;;;;;;4.75;2.20;;;11.80;94.90;;;;;;5021255;28;20022;-69
2022/12/29 01:24:11;;;;;;;2.42;1.90;;;11.80;94.80;;;;;;5019242;28;20469;-68
2022/12/29 01:26:37;;;;;;;2.65;1.80;;;11.80;94.70;;;;;;5028262;28;20029;-69
2022/12/29 01:29:02;;;;;;;2.00;1.80;;;11.80;94.70;;;;;;5027411;28;20034;-69
2022/12/29 01:31:28;;;;;;;2.60;1.52;;;11.80;94.60;;;;;;5029397;28;20767;-69
2022/12/29 01:33:53;;;;;;;2.65;1.83;;;11.80;94.60;;;;;;5029159;28;20022;-69
2022/12/29 01:36:19;;;;;;;3.17;1.63;;;11.80;94.70;;;;;;5029147;28;20041;-69
2022/12/29 01:38:45;;;;;;;1.90;1.63;;;11.80;94.70;;;;;;5029205;28;20026;-69
2022/12/29 01:41:14;;;;;;;1.80;1.40;;;11.70;94.80;;;;;;5028561;28;20465;-68
2022/12/29 01:43:42;;;;;;;1.63;1.52;;;11.70;94.80;;;;;;5029378;28;20092;-69
2022/12/29 01:46:18;;;;;;;2.55;1.60;;;11.70;95.00;;;;;;5027896;28;21381;-69
2022/12/29 01:48:47;;;;;;;2.85;1.60;;;11.70;95.10;;;;;;5026234;28;20032;-69
2022/12/29 01:51:12;;;;;;;2.28;1.90;;;11.70;95.10;;;;;;5029102;28;20041;-69
2022/12/29 01:53:38;;;;;;;2.35;1.73;;;11.70;95.20;;;;;;5029142;28;20029;-69
2022/12/29 01:56:10;;;;;;;2.28;1.60;;;11.70;95.20;;;;;;5027740;28;20037;-69
2022/12/29 01:58:41;;;;;;;2.78;1.60;;;11.70;95.30;;;;;;5028387;28;20025;-69
2022/12/29 02:01:07;;;;;;;2.63;1.90;;;11.60;95.30;;;;;;5024287;28;20034;-69
2022/12/29 02:03:34;;;;;;;2.70;2.10;;;11.70;95.40;;;;;;5024512;28;20029;-69
2022/12/29 02:06:12;;;;;;;2.00;1.70;;;11.60;95.50;;;;;;5020420;28;20029;-69
2022/12/29 02:08:39;;;;;;;2.47;2.20;;;11.70;95.60;;;;;;5023110;28;20034;-69
2022/12/29 02:11:06;;;;;;;2.10;1.80;;;11.70;95.60;;;;;;5025971;28;20627;-68
2022/12/29 02:13:32;;;;;;;2.45;2.08;;;11.70;95.60;;;;;;5026113;28;20036;-69
2022/12/29 02:16:16;;;;;;;3.17;2.20;;;11.70;95.60;;;;;;5024433;28;20022;-69
2022/12/29 02:19:06;;;;;;;2.53;2.00;;;11.70;95.70;;;;;;5020820;28;20026;-69
2022/12/29 02:21:47;;;;;;;3.13;2.22;;;11.80;95.70;;;;;;5021778;28;20037;-69
2022/12/29 02:24:28;;;;;;;2.30;1.83;;;11.80;95.80;;;;;;5022741;28;20472;-69
2022/12/29 02:27:23;;;;;;;1.80;1.70;;;11.80;95.70;;;;;;5022853;28;20041;-69
2022/12/29 02:29:57;;;;;;;2.40;1.70;;;11.70;95.80;;;;;;5025666;28;20030;-69
2022/12/29 02:32:40;;;;;;;1.98;1.60;;;11.80;95.90;;;;;;5027619;28;20022;-69
2022/12/29 02:35:10;;;;;;;1.60;1.50;;;11.80;96.00;;;;;;5023634;28;20103;-69
2022/12/29 02:37:53;;;;;;;2.05;1.60;;;11.90;96.00;;;;;;5022354;28;21474;-69
2022/12/29 02:40:25;;;;;;;1.45;1.35;;;11.90;96.10;;;;;;5022120;28;20392;-69
2022/12/29 02:43:09;;;;;;;2.50;1.88;;;11.90;96.10;;;;;;5025330;28;20033;-69
2022/12/29 02:45:53;;;;;;;3.63;1.80;;;11.80;96.10;;;;;;5037617;28;20026;-69
2022/12/29 02:48:23;;;;;;;1.70;1.60;;;11.80;96.30;;;;;;5019743;28;20029;-70
2022/12/29 02:51:21;;;;;;;1.98;1.50;;;11.80;96.30;;;;;;5017818;28;20032;-69
2022/12/29 02:56:31;;;;;;;1.77;1.67;;;11.80;96.50;;;;;;5016973;28;20091;-69
2022/12/29 02:58:56;;;;;;;1.75;1.60;;;11.80;96.50;;;;;;5014234;28;20021;-69
2022/12/29 03:01:37;;;;;;;1.52;1.42;;;11.80;96.60;;;;;;5018566;28;20100;-69
2022/12/29 03:04:05;;;;;;;1.60;1.50;;;11.80;96.60;;;;;;5016518;28;20029;-69
2022/12/29 03:06:54;;;;;;;3.38;1.60;;;11.90;96.60;;;;;;5016836;28;20033;-69
2022/12/29 03:09:32;;;;;;;2.42;1.20;;;11.80;96.50;;;;;;5032379;28;20030;-70
2022/12/29 03:12:08;;;;;;;2.97;1.45;;;11.80;96.50;;;;;;5017518;28;20175;-70
2022/12/29 03:18:15;;;;;;;2.72;1.30;;;11.90;96.30;;;;;;5020904;28;20550;-70
2022/12/29 03:20:57;;;;;;;1.27;1.02;;;11.90;96.20;;;;;;5019025;28;20037;-69
2022/12/29 03:23:25;;;;;;;3.45;1.55;;;11.80;96.10;;;;;;5020321;28;20030;-68
2022/12/29 03:26:01;;;;;;;1.55;1.08;;;11.80;95.90;;;;;;5014204;28;20017;-68
2022/12/29 03:28:37;;;;;;;2.50;1.17;;;11.70;96.00;;;;;;5035863;28;20021;-68
2022/12/29 03:31:06;;;;;;;3.15;1.30;;;11.60;96.00;;;;;;5019115;28;20021;-68
2022/12/29 03:33:32;;;;;;;3.30;1.20;;;11.60;95.90;;;;;;5014333;28;20097;-68
2022/12/29 03:36:02;;;;;;;3.20;1.30;;;11.60;95.70;;;;;;5014773;28;20033;-69
2022/12/29 03:38:43;;;;;;;2.65;1.50;;;11.60;95.50;;;;;;5018566;28;20459;-69
2022/12/29 03:41:12;;;;;;;4.53;1.70;;;11.70;95.50;;;;;;5018825;28;20021;-69
2022/12/29 03:43:38;;;;;;;4.18;1.20;;;11.70;95.30;;;;;;5014383;28;20026;-69
2022/12/29 03:46:04;;;;;;;2.38;1.38;;;11.70;95.30;;;;;;5020198;28;20095;-69
2022/12/29 03:48:29;;;;;;;2.35;1.20;;;11.70;95.10;;;;;;5024836;28;20443;-69
2022/12/29 03:50:55;;;;;;;2.33;1.20;;;11.80;95.00;;;;;;5022169;28;20026;-69
2022/12/29 03:53:21;;;;;;;2.40;1.30;;;11.70;94.90;;;;;;5019125;28;20361;-69
2022/12/29 03:55:46;;;;;;;2.83;1.30;;;11.80;94.90;;;;;;5020424;28;20037;-69
2022/12/29 03:58:12;;;;;;;2.80;1.15;;;11.80;94.90;;;;;;5024174;28;20614;-69
2022/12/29 04:00:38;;;;;;;2.10;1.02;;;11.80;94.80;;;;;;5021547;28;20017;-69
2022/12/29 04:03:03;;;;;;;4.07;1.60;;;11.80;94.80;;;;;;5032550;28;20030;-69
2022/12/29 04:05:29;;;;;;;2.28;1.20;;;11.80;94.80;;;;;;5023421;28;20098;-69
2022/12/29 04:07:55;;;;;;;2.15;1.15;;;11.80;94.70;;;;;;5023428;28;20017;-68
2022/12/29 04:10:20;;;;;;;3.22;1.20;;;11.80;94.40;;;;;;5017138;28;20054;-68
2022/12/29 04:12:46;;;;;;;2.30;1.10;;;11.80;94.30;;;;;;5018215;28;20519;-70
2022/12/29 04:15:12;;;;;;;2.95;1.40;;;11.80;94.20;;;;;;5022171;28;20033;-70
2022/12/29 04:17:37;;;;;;;2.17;1.25;;;11.80;94.10;;;;;;5020306;28;20068;-70
2022/12/29 04:22:48;;;;;;;2.95;1.30;;;11.80;94.00;;;;;;5015451;28;20039;-69
2022/12/29 04:25:13;;;;;;;3.17;1.40;;;11.90;93.90;;;;;;5024753;28;20029;-69
2022/12/29 04:27:39;;;;;;;3.50;1.27;;;11.90;93.80;;;;;;5026861;28;20068;-69
2022/12/29 04:30:05;;;;;;;2.58;1.27;;;11.80;93.70;;;;;;5036797;28;20116;-69
2022/12/29 04:32:31;;;;;;;4.35;1.45;;;11.90;93.60;;;;;;5027633;28;20060;-69
2022/12/29 04:34:56;;;;;;;4.43;1.30;;;11.90;93.50;;;;;;5025085;28;20038;-69
2022/12/29 04:37:22;;;;;;;3.50;1.15;;;11.80;93.20;;;;;;5028458;28;20411;-69
2022/12/29 04:39:48;;;;;;;3.72;1.17;;;11.80;93.10;;;;;;5027971;28;20064;-69
2022/12/29 04:42:13;;;;;;;3.53;1.35;;;11.80;93.00;;;;;;5036249;28;20017;-69
2022/12/29 04:44:39;;;;;;;2.45;1.30;;;11.80;93.00;;;;;;5026936;28;20151;-69
2022/12/29 04:47:04;;;;;;;3.05;1.20;;;11.80;93.00;;;;;;5026748;28;20061;-70
2022/12/29 04:49:30;;;;;;;4.00;1.70;;;11.80;92.90;;;;;;5024267;28;20050;-69
2022/12/29 04:51:55;;;;;;;3.53;1.40;;;11.70;92.80;;;;;;5027421;28;20022;-69
2022/12/29 04:54:21;;;;;;;3.85;1.63;;;11.80;92.70;;;;;;5022402;28;20029;-69
2022/12/29 04:56:46;;;;;;;2.85;1.30;;;11.70;92.80;;;;;;5024302;28;20033;-69
2022/12/29 04:59:12;;;;;;;2.60;1.20;;;11.70;92.80;;;;;;5024516;28;20032;-68
2022/12/29 05:01:38;;;;;;;4.82;1.30;;;11.70;92.90;;;;;;5019585;28;20079;-68
2022/12/29 05:04:03;;;;;;;3.47;1.13;;;11.60;92.80;;;;;;5021877;28;20504;-69
2022/12/29 05:06:29;;;;;;;2.20;1.25;;;11.60;92.90;;;;;;5022060;28;20038;-69
2022/12/29 05:08:54;;;;;;;4.22;1.52;;;11.60;92.80;;;;;;5024069;28;20029;-69
2022/12/29 05:11:20;;;;;;;4.25;1.40;;;11.60;92.50;;;;;;5022027;28;20065;-69
2022/12/29 05:13:46;;;;;;;4.82;1.40;;;11.60;92.30;;;;;;5022396;28;20026;-68
2022/12/29 05:16:12;;;;;;;4.03;1.10;;;11.60;92.10;;;;;;5023742;28;20025;-68
2022/12/29 05:18:37;;;;;;;3.38;1.27;;;11.60;91.70;;;;;;5021459;28;20032;-69
2022/12/29 05:21:03;;;;;;;3.05;1.20;;;11.50;91.50;;;;;;5022815;28;20029;-70
2022/12/29 05:23:29;;;;;;;3.83;1.30;;;11.50;91.40;;;;;;5021150;28;20032;-69
2022/12/29 05:25:54;;;;;;;5.35;1.35;;;11.50;91.30;;;;;;5023599;28;20079;-69
2022/12/29 05:28:20;;;;;;;4.35;1.45;;;11.50;91.20;;;;;;5021492;28;20036;-70
2022/12/29 05:30:49;;;;;;;4.13;1.40;;;11.50;91.20;;;;;;5025688;28;20467;-69
2022/12/29 05:33:14;;;;;;;4.43;1.48;;;11.50;91.10;;;;;;5020935;28;20018;-68
2022/12/29 05:35:40;;;;;;;4.32;1.25;;;11.50;91.20;;;;;;5027461;28;20025;-68
2022/12/29 05:38:05;;;;;;;3.67;1.40;;;11.50;91.10;;;;;;5024218;28;20017;-69
2022/12/29 05:40:31;;;;;;;4.75;1.70;;;11.50;91.30;;;;;;5024577;28;20018;-69
2022/12/29 05:42:56;;;;;;;3.75;1.30;;;11.50;91.40;;;;;;5023260;28;20472;-69
2022/12/29 05:45:22;;;;;;;4.32;1.60;;;11.40;91.60;;;;;;5023483;28;20529;-69
2022/12/29 05:47:48;;;;;;;2.35;1.40;;;11.40;91.70;;;;;;5036082;28;20041;-69
2022/12/29 05:50:13;;;;;;;4.07;1.52;;;11.30;91.90;;;;;;5020660;28;20030;-69
2022/12/29 05:52:39;;;;;;;3.25;1.50;;;11.20;92.10;;;;;;5024037;28;20053;-70
2022/12/29 05:55:05;;;;;;;2.70;1.30;;;11.20;92.30;;;;;;5021292;28;20025;-69
2022/12/29 05:57:30;;;;;;;3.10;1.45;;;11.10;92.40;;;;;;5027790;28;20427;-69
2022/12/29 05:59:56;;;;;;;3.58;1.50;;;11.10;92.50;;;;;;5023747;28;20018;-70
2022/12/29 06:02:22;;;;;;;3.95;1.55;;;11.10;92.60;;;;;;5026366;28;20026;-68
2022/12/29 06:04:47;;;;;;;2.00;1.30;;;11.00;92.60;;;;;;5025631;28;20104;-68
2022/12/29 06:07:13;;;;;;;4.10;1.60;;;11.00;92.60;;;;;;5025417;28;20030;-68
2022/12/29 06:09:38;;;;;;;3.97;1.50;;;11.00;92.50;;;;;;5026785;28;20082;-68
2022/12/29 06:12:04;;;;;;;3.10;1.50;;;11.00;92.40;;;;;;5026186;28;20108;-68
2022/12/29 06:14:30;;;;;;;5.70;1.45;;;11.00;92.30;;;;;;5026343;28;20052;-68
2022/12/29 06:16:55;;;;;;;3.63;1.50;;;11.00;92.20;;;;;;5024854;28;20087;-68
2022/12/29 06:19:21;;;;;;;4.70;1.63;;;11.00;92.20;;;;;;5026734;28;20156;-68
2022/12/29 06:21:46;;;;;;;5.45;1.70;;;11.10;92.10;;;;;;5024370;28;20029;-68
2022/12/29 06:24:12;;;;;;;8.45;2.10;;;11.00;91.90;;;;;;5026112;28;20476;-69
2022/12/29 06:26:38;;;;;;;5.63;1.58;;;11.00;91.80;;;;;;5025434;28;20025;-68
2022/12/29 06:29:03;;;;;;;5.80;1.83;;;11.00;91.70;;;;;;5025330;28;20026;-68
2022/12/29 06:31:29;;;;;;;5.75;1.52;;;11.00;91.60;;;;;;5025103;28;20040;-68
2022/12/29 06:33:54;;;;;;;5.05;1.30;;;11.00;91.50;;;;;;5026410;28;20030;-69
2022/12/29 06:36:20;;;;;;;9.23;1.88;;;11.00;91.50;;;;;;5023604;28;20544;-68
2022/12/29 06:38:45;;;;;;;6.43;1.75;;;11.00;91.20;;;;;;5023913;28;20071;-69
2022/12/29 06:41:11;;;;;;;4.78;1.40;;;11.00;91.10;;;;;;5021990;28;20049;-69
2022/12/29 06:43:37;;;;;;;6.03;1.70;;;11.00;91.00;;;;;;5021092;28;20068;-68
2022/12/29 06:46:04;;;;;;;6.40;1.75;;;11.00;90.80;;;;;;5021149;28;20034;-69
2022/12/29 06:48:30;;;;;;;4.63;1.70;;;11.00;90.70;;;;;;5020064;28;20079;-69
2022/12/29 06:50:55;;;;;;;5.32;1.63;;;11.00;90.70;;;;;;5025722;28;20495;-68
2022/12/29 06:53:21;;;;;;;3.58;1.27;;;11.00;90.60;;;;;;5021380;28;20034;-68
2022/12/29 06:55:46;;;;;;;5.38;1.60;;;11.10;90.50;;;;;;5022603;28;20052;-68
2022/12/29 06:58:12;;;;;;;7.18;1.58;;;11.00;90.20;;;;;;5020683;28;20042;-68
2022/12/29 07:00:37;;;;;;;6.38;1.65;;;11.00;90.10;;;;;;5020612;28;20017;-69
2022/12/29 07:03:03;;;;;;;5.57;1.63;;;11.00;90.00;;;;;;5020103;28;20026;-68
2022/12/29 07:05:31;;;;;;;5.70;1.80;;;11.10;90.00;;;;;;5019831;28;20021;-69
2022/12/29 07:07:56;;;;;;;4.30;1.60;;;11.10;89.90;;;;;;5019923;28;20033;-69
2022/12/29 07:10:22;;;;;;;6.22;1.33;;;11.10;89.60;;;;;;5021920;28;20033;-67
2022/12/29 07:12:48;;;;;;;4.57;1.58;;;11.10;89.00;;;;;;5023158;28;20068;-67
2022/12/29 07:15:14;;;;;;;5.13;1.40;;;11.10;88.70;;;;;;5020586;28;20492;-67
2022/12/29 07:17:39;;;;;;;4.53;1.50;;;11.20;88.70;;;;;;5020718;28;20102;-67
2022/12/29 07:20:06;;;;;;;6.57;1.35;;;11.20;88.60;;;;;;5022432;28;20491;-67
2022/12/29 07:22:31;;;;;;;5.47;1.48;;;11.20;88.50;;;;;;5024098;28;20057;-67
2022/12/29 07:24:57;;;;;;;4.90;1.30;;;11.20;88.30;;;;;;5021682;28;20239;-67
2022/12/29 07:27:23;;;;;;;5.35;1.67;;;11.20;88.30;;;;;;5021616;28;20052;-67
2022/12/29 07:29:48;;;;;;;6.75;1.60;;;11.20;87.90;;;;;;5016941;28;20112;-67
2022/12/29 07:32:14;;;;;;;4.00;1.35;;;11.20;87.80;;;;;;5019594;28;20109;-67
2022/12/29 07:34:39;;;;;;;4.20;1.40;;;11.20;87.60;;;;;;5021395;28;20032;-67
2022/12/29 07:37:06;;;;;;;4.15;1.48;;;11.20;87.70;;;;;;5017669;28;20025;-67
2022/12/29 07:39:31;;;;;;;3.72;1.40;;;11.20;87.40;;;;;;5021036;28;20025;-67
2022/12/29 07:41:57;;;;;;;5.40;1.70;;;11.20;87.40;;;;;;5020634;28;20684;-66
2022/12/29 07:44:22;;;;;;;4.00;1.40;;;11.20;86.90;;;;;;5021676;28;20105;-67
2022/12/29 07:46:48;;;;;;;5.75;1.67;;;11.20;87.10;;;;;;5019715;28;20053;-67
2022/12/29 07:49:13;;;;;;;4.30;1.73;;;11.20;87.10;;;;;;5021192;28;20050;-67
2022/12/29 07:51:39;;;;;;;4.38;1.55;;;11.20;86.90;;;;;;5017267;28;20153;-67
2022/12/29 07:54:04;;;;;;;5.70;1.70;;;11.20;86.70;;;;;;5021994;28;20029;-67
2022/12/29 07:56:30;;;;;;;5.95;1.52;;;11.20;86.20;;;;;;5023614;28;20026;-67
2022/12/29 07:58:56;;;;;;;5.65;1.50;;;11.30;86.20;;;;;;5023034;28;20022;-67
2022/12/29 08:01:23;;;;;;;6.30;1.70;;;11.20;86.20;;;;;;5026223;28;20531;-67
2022/12/29 08:03:49;;;;;;;6.15;1.63;;;11.20;85.90;;;;;;5022011;28;20029;-68
2022/12/29 08:06:15;;;;;;;7.18;2.08;;;11.30;86.00;;;;;;5023025;28;20025;-67
2022/12/29 08:08:41;;;;;;;6.10;1.52;;;11.30;85.80;;;;;;5024343;28;20042;-67
2022/12/29 08:11:06;;;;;;;5.43;1.35;;;11.30;85.40;;;;;;5024856;28;20522;-67
2022/12/29 08:13:32;;;;;;;5.07;2.05;;;11.30;85.50;;;;;;5024244;28;20033;-67
2022/12/29 08:15:58;;;;;;;7.30;2.45;;;11.30;85.20;;;;;;5023953;28;20021;-67
2022/12/29 08:18:24;;;;;;;7.00;1.70;;;11.30;85.20;;;;;;5025511;28;20571;-67
2022/12/29 08:20:50;;;;;;;7.07;2.00;;;11.30;85.30;;;;;;5021698;28;20109;-67
2022/12/29 08:23:15;;;;;;;4.85;1.70;;;11.20;85.20;;;;;;5024346;28;20030;-67
2022/12/29 08:25:41;;;;;;;6.68;1.80;;;11.20;85.20;;;;;;5022647;28;20035;-67
2022/12/29 08:28:07;;;;;;;5.53;2.17;;;11.30;84.80;;;;;;5026250;28;20099;-67
2022/12/29 08:30:32;;;;;;;6.55;2.00;;;11.30;84.10;;;;;;5024102;28;20039;-67
2022/12/29 08:32:58;;;;;;;5.47;1.77;;;11.30;83.70;;;;;;5024520;28;20033;-67
2022/12/29 08:35:23;;;;;;;5.72;1.60;;;11.30;83.20;;;;;;5021166;28;20030;-67
2022/12/29 08:37:49;;;;;;;9.18;2.33;;;11.30;83.30;;;;;;5023834;28;20538;-67
2022/12/29 08:40:15;;;;;;;6.43;2.03;;;11.40;83.30;;;;;;5024810;28;20108;-67
2022/12/29 08:42:40;;;;;;;7.90;2.17;;;11.40;83.00;;;;;;5029476;28;20030;-67
2022/12/29 08:45:08;;;;;;;6.57;2.05;;;11.40;83.00;;;;;;5025338;28;20557;-67
2022/12/29 08:47:34;;;;;;;6.65;1.70;;;11.40;82.60;;;;;;5027652;28;20069;-67
2022/12/29 08:49:59;;;;;;;5.43;1.70;;;11.40;81.90;;;;;;5027250;28;20056;-67
2022/12/29 08:52:25;;;;;;;5.45;1.40;;;11.40;82.00;;;;;;5027445;28;20033;-67
2022/12/29 08:54:50;;;;;;;6.97;1.92;;;11.50;82.30;;;;;;5023812;28;20044;-67
2022/12/29 08:57:16;;;;;;;6.13;1.88;;;11.40;81.80;;;;;;5026462;28;20032;-67
2022/12/29 08:59:41;;;;;;;4.97;1.70;;;11.40;81.80;;;;;;5026166;28;20637;-67
2022/12/29 09:02:11;;;;;;;5.97;1.80;;;11.40;81.70;;;;;;5020329;28;20097;-67
2022/12/29 09:04:37;;;;;;;6.25;1.90;;;11.50;81.90;;;;;;5023978;28;20026;-67
2022/12/29 09:07:03;;;;;;;5.53;1.63;;;11.50;81.90;;;;;;5024964;28;20361;-67
2022/12/29 09:09:29;;;;;;;6.85;1.90;;;11.50;82.10;;;;;;5030081;28;20033;-67
2022/12/29 09:11:54;;;;;;;6.55;1.95;;;11.50;82.20;;;;;;5028410;28;20059;-67
2022/12/29 09:14:21;;;;;;;9.07;2.20;;;11.50;81.90;;;;;;5027282;28;20038;-67
2022/12/29 09:19:31;;;;;;;5.57;1.70;;;11.40;82.10;;;;;;5028008;28;20462;-67
2022/12/29 09:21:56;;;;;;;5.70;1.70;;;11.40;82.60;;;;;;5029154;28;20018;-67
2022/12/29 09:24:22;;;;;;;9.70;1.90;;;11.40;82.90;;;;;;5026320;28;20056;-67
2022/12/29 09:26:47;;;;;;;9.07;2.28;;;11.40;83.20;;;;;;5027996;28;20061;-67
2022/12/29 09:29:13;;;;;;;8.35;2.20;;;11.30;83.40;;;;;;5028720;28;20053;-67
2022/12/29 09:31:38;;;;;;;6.72;1.80;;;11.30;83.40;;;;;;5023269;28;20053;-67
2022/12/29 09:34:04;;;;;;;9.02;1.90;;;11.30;83.60;;;;;;5023926;28;20113;-67
2022/12/29 09:36:30;;;;;;;7.25;1.80;;;11.30;83.70;;;;;;5028002;28;20041;-67
2022/12/29 09:38:55;;;;;;;6.63;1.88;;;11.30;83.80;;;;;;5030304;28;20026;-67
2022/12/29 09:41:29;;;;;;;5.75;1.80;;;11.30;83.70;;;;;;5027544;28;20087;-67
2022/12/29 09:44:18;;;;;;;8.75;2.35;;;11.30;83.70;;;;;;5027247;28;20025;-67
2022/12/29 09:46:50;;;;;;;6.90;2.10;;;11.30;83.60;;;;;;5025989;28;20505;-67
2022/12/29 09:49:33;;;;;;;6.65;2.05;;;11.30;83.80;;;;;;5026365;28;20029;-67
2022/12/29 09:52:10;;;;;;;6.43;1.85;;;11.30;84.10;;;;;;5027381;28;20033;-67
2022/12/29 09:55:00;;;;;;;6.25;1.95;;;11.20;84.10;;;;;;5024225;28;20021;-67
2022/12/29 09:58:09;;;;;;;7.70;2.03;;;11.20;84.50;;;;;;5026470;28;20029;-67
2022/12/29 10:00:53;;;;;;;8.73;2.28;;;11.20;84.90;;;;;;5022299;28;20048;-67
2022/12/29 10:03:22;;;;;;;5.78;2.00;;;11.10;85.20;;;;;;5024951;28;20033;-67
2022/12/29 10:05:54;;;;;;;8.02;2.03;;;11.10;85.50;;;;;;5023830;28;20598;-67
2022/12/29 10:08:22;;;;;;;8.77;2.13;;;11.10;85.80;;;;;;5026785;28;20075;-66
2022/12/29 10:10:56;;;;;;;5.88;2.15;;;11.00;86.20;;;;;;5024362;28;20033;-67
2022/12/29 10:13:27;;;;;;;7.10;2.20;;;11.00;86.80;;;;;;5023495;28;20033;-67
2022/12/29 10:16:04;;;;;;;9.00;2.17;;;11.00;87.50;;;;;;5023546;28;20447;-67
2022/12/29 10:18:48;;;;;;;5.75;1.70;;;10.90;87.90;;;;;;5024496;28;20037;-67
2022/12/29 10:21:35;;;;;;;8.02;2.00;;;10.90;88.50;;;;;;5025748;28;20021;-67
2022/12/29 10:24:06;;;;;;;6.88;2.05;;;10.90;89.00;;;;;;5024028;28;20030;-67
2022/12/29 10:26:38;;;;;;;8.90;2.38;;;10.80;89.50;;;;;;5022984;28;20408;-66
2022/12/29 10:29:12;;;;;;;8.00;2.10;;;10.70;90.00;;;;;;5023733;28;20029;-66
2022/12/29 10:31:59;;;;;;;6.45;1.70;;;10.70;90.30;;;;;;5024602;28;20518;-66
2022/12/29 10:34:37;;;;;;;7.18;1.80;;;10.70;90.60;;;;;;5022178;28;20041;-66
2022/12/29 10:37:05;;;;;;;7.57;2.00;;;10.70;90.90;;;;;;5018267;28;20057;-66
2022/12/29 10:39:43;;;;;;;6.85;1.95;;;10.60;91.10;;;;;;5022129;28;20116;-66
2022/12/29 10:42:21;;;;;;;4.97;1.70;;;10.60;91.20;;;;;;5021810;28;20037;-66
2022/12/29 10:44:47;;;;;;;6.57;1.80;;;10.60;91.40;;;;;;5022365;28;20507;-66
2022/12/29 10:47:18;;;;;;;5.40;1.70;;;10.60;91.60;;;;;;5020579;28;20515;-66
2022/12/29 10:49:47;;;;;;;7.63;2.00;;;10.60;91.80;;;;;;5018953;28;20431;-66
2022/12/29 10:52:15;;;;;;;8.15;2.67;;;10.60;91.90;;;;;;5021198;28;20033;-66
2022/12/29 10:54:46;;;;;;;4.68;1.85;;;10.50;92.00;;;;;;5020705;28;20038;-66
2022/12/29 10:57:25;;;;;;;3.90;1.90;;;10.50;92.30;;;;;;5020905;28;20388;-66
2022/12/29 10:59:51;;;;;;;9.13;2.40;;;10.50;92.40;;;;;;5015776;28;20379;-67
2022/12/29 11:02:32;;;;;;;7.80;2.35;;;10.50;92.60;;;;;;5021204;28;20124;-67
2022/12/29 11:05:22;;;;;;;5.80;1.95;;;10.40;92.80;;;;;;5015512;28;20071;-65
2022/12/29 11:07:51;;;;;;;5.53;1.80;;;10.50;93.00;;;;;;5017877;28;20037;-66
2022/12/29 11:10:38;;;;;;;6.30;2.03;;;10.50;93.00;;;;;;5020043;28;20022;-66
2022/12/29 11:13:14;;;;;;;5.55;2.10;;;10.50;93.10;;;;;;5021333;28;20025;-66
2022/12/29 11:15:43;;;;;;;7.22;2.47;;;10.50;93.20;;;;;;5019118;28;20033;-66
2022/12/29 11:18:25;;;;;;;6.05;2.13;;;10.50;93.20;;;;;;5021820;28;20100;-67
2022/12/29 11:20:54;;;;;;;10.52;2.50;;;10.50;93.30;;;;;;5019180;28;20033;-67
2022/12/29 11:23:25;;;;;;;7.80;2.30;;;10.50;93.30;;;;;;5024358;28;20030;-66
2022/12/29 11:26:09;;;;;;;6.97;2.38;;;10.60;93.30;;;;;;5017859;28;20116;-67
2022/12/29 11:28:36;;;;;;;9.13;3.03;;;10.60;93.20;;;;;;5021454;28;20564;-66
2022/12/29 11:31:03;;;;;;;12.73;3.17;;;10.60;93.20;;;;;;5020381;28;20049;-67
2022/12/29 11:33:30;;;;;;;11.73;3.20;;;10.60;93.10;;;;;;5019889;28;20032;-67
2022/12/29 11:36:01;;;;;;;6.57;2.42;;;10.60;93.10;;;;;;5019549;28;20033;-66
2022/12/29 11:38:36;;;;;;;8.18;3.22;;;10.60;93.10;;;;;;5021455;28;20090;-66
2022/12/29 11:41:03;;;;;;;5.75;2.70;;;10.60;93.10;;;;;;5020414;28;20022;-67
2022/12/29 11:43:39;;;;;;;11.45;3.35;;;10.70;93.20;;;;;;5022067;28;20026;-67
2022/12/29 11:46:06;;;;;;;9.48;3.03;;;10.70;93.20;;;;;;5019315;28;20495;-66
2022/12/29 11:48:39;;;;;;;10.43;2.90;;;10.70;93.10;;;;;;5024520;28;20075;-67
2022/12/29 11:51:05;;;;;;;11.65;3.42;;;10.70;93.10;;;;;;5023128;28;20021;-67
2022/12/29 11:53:36;;;;;;;11.10;3.45;;;10.70;93.10;;;;;;5024208;28;20029;-66
2022/12/29 11:56:12;;;;;;;9.38;3.30;;;10.80;93.10;;;;;;5020947;28;20112;-66
2022/12/29 11:58:38;;;;;;;9.23;3.40;;;10.80;93.00;;;;;;5020982;28;20454;-66
2022/12/29 12:01:27;;;;;;;9.20;3.30;;;10.80;93.00;;;;;;5021868;28;20030;-65
2022/12/29 12:04:02;;;;;;;11.95;3.90;;;10.90;93.00;;;;;;5020352;28;20029;-68
2022/12/29 12:06:31;;;;;;;14.40;3.60;;;10.90;92.80;;;;;;5035360;28;20026;-68
2022/12/29 12:09:02;;;;;;;10.73;3.42;;;10.90;92.80;;;;;;5022268;28;20045;-66
2022/12/29 12:11:41;;;;;;;8.63;3.40;;;10.90;92.70;;;;;;5018440;28;20033;-66
2022/12/29 12:14:17;;;;;;;11.30;3.50;;;10.90;92.60;;;;;;5020954;28;20037;-66
2022/12/29 12:16:54;;;;;;;8.13;3.25;;;10.90;92.60;;;;;;5020402;28;20068;-66
2022/12/29 12:19:56;;;;;;;9.75;3.75;;;10.90;92.50;;;;;;5029242;28;20032;-66
2022/12/29 12:22:24;;;;;;;;;;;11.00;92.20;;;;;;5028997;28;21407;-66
2022/12/29 12:24:58;;;;;;;13.75;3.63;;;11.10;92.00;;;;;;5025773;28;19997;-66
2022/12/29 12:27:31;;;;;;;16.00;4.28;;;11.10;91.80;;;;;;5025968;28;20033;-66
2022/12/29 12:30:02;;;;;;;12.68;3.80;;;11.10;91.70;;;;;;5027627;28;20037;-66
2022/12/29 12:32:52;;;;;;;15.70;3.90;;;11.10;91.50;;;;;;5024826;28;20735;-66
2022/12/29 12:35:44;;;;;;;14.98;4.40;;;11.10;91.20;;;;;;5021713;28;20041;-66
2022/12/29 12:38:48;;;;;;;11.13;3.67;;;11.10;91.10;;;;;;5021479;28;20049;-67
2022/12/29 12:41:29;;;;;;;11.05;3.88;;;11.10;91.10;;;;;;5025744;28;20141;-65
2022/12/29 12:44:07;;;;;;;10.15;3.80;;;11.10;91.10;;;;;;5030482;28;20037;-66
2022/12/29 12:46:54;;;;;;;11.80;3.75;;;11.10;90.90;;;;;;5025691;28;20034;-69
2022/12/29 12:49:57;;;;;;;10.90;3.90;;;11.30;90.80;;;;;;5026312;28;20040;-67
2022/12/29 12:52:41;;;;;;;10.75;3.53;;;11.40;90.40;;;;;;5027967;28;20612;-67
2022/12/29 12:55:25;;;;;;;11.13;3.75;;;11.70;90.00;;;;;;5026932;28;20029;-69
2022/12/29 12:57:57;;;;;;;12.75;4.18;;;11.70;89.60;;;;;;5027098;28;20431;-67
2022/12/29 13:00:23;;;;;;;12.35;3.53;;;11.60;88.70;;;;;;5026120;28;20037;-67
2022/12/29 13:03:12;;;;;;;7.72;3.10;;;11.50;88.90;;;;;;5027237;28;20036;-67
2022/12/29 13:05:57;;;;;;;7.50;3.40;;;11.50;89.30;;;;;;5025661;28;20520;-67
2022/12/29 13:08:34;;;;;;;9.40;3.40;;;11.40;89.10;;;;;;5027661;28;20034;-67
2022/12/29 13:11:32;;;;;;;7.97;3.08;;;11.40;89.10;;;;;;5028170;28;20034;-68
2022/12/29 13:14:07;;;;;;;9.75;3.28;;;11.40;89.00;;;;;;5023472;28;21582;-68
2022/12/29 13:17:05;;;;;;;9.43;3.40;;;11.40;89.00;;;;;;5027444;28;20068;-69
2022/12/29 13:20:02;;;;;;;11.23;3.42;;;11.40;88.90;;;;;;5024577;28;21311;-66
2022/12/29 13:22:36;;;;;;;12.57;3.33;;;11.30;88.90;;;;;;5026702;28;20053;-66
2022/12/29 13:25:39;;;;;;;12.63;3.90;;;11.30;89.20;;;;;;5025433;28;20033;-66
2022/12/29 13:28:49;;;;;;;10.23;3.47;;;11.20;89.20;;;;;;5025491;28;20064;-66
2022/12/29 13:31:17;;;;;;;11.60;3.45;;;11.20;89.30;;;;;;4983658;28;20065;-67
2022/12/29 13:34:01;;;;;;;9.00;3.00;;;11.20;89.40;;;;;;5019669;28;20049;-68
2022/12/29 13:36:34;;;;;;;9.15;3.65;;;11.20;89.60;;;;;;5023596;28;20033;-67
2022/12/29 13:39:05;;;;;;;;;;;11.20;89.60;;;;;;5027888;28;20440;-68
2022/12/29 13:41:50;;;;;;;12.43;3.30;;;11.10;89.40;;;;;;5026960;28;19909;-67